Terminal Aerodrome Forecast
Issued by NWS

Home | Current Version | Previous Version | Graphics & Text | Print | Product List | Glossary On
Versions: 1 2 3 4 5 6 7 8 9 10 11 12 13 14 15 16 17 18
000
FTUS43 KGRB 231900 AAA
TAFATW
TAF AMD
KATW 231910Z 2319/2418 02011G18KT P6SM BKN045
      TEMPO 2319/2323 SCT045
     FM232300 05007KT P6SM SCT050
     FM240600 VRB03KT P6SM SKC
      TEMPO 2408/2411 2SM BR
     FM241300 21004KT P6SM SKC=

USA.gov is the U.S. government's official web portal to all federal, state and local government web resources and services.